createdAt,value
2022-09-16T00:05:49.154Z,6.20
2022-09-16T00:12:31.840Z,6.65
2022-09-16T00:19:14.226Z,6.05
2022-09-16T00:25:56.584Z,9.98
2022-09-16T00:32:38.920Z,7.35
2022-09-16T00:39:21.232Z,6.72
2022-09-16T00:46:05.887Z,7.55
2022-09-16T00:52:50.570Z,5.82
2022-09-16T00:59:36.349Z,5.30
2022-09-16T01:06:19.568Z,7.70
2022-09-16T01:13:06.457Z,7.03
2022-09-16T01:20:10.073Z,6.32
2022-09-16T01:26:58.109Z,5.47
2022-09-16T01:34:01.334Z,5.68
2022-09-16T01:41:19.854Z,5.63
2022-09-16T01:48:19.733Z,7.45
2022-09-16T01:55:06.706Z,6.43
2022-09-16T02:02:04.331Z,5.63
2022-09-16T02:08:57.476Z,9.73
2022-09-16T02:15:42.131Z,6.55
2022-09-16T02:22:32.251Z,7.20
2022-09-16T02:29:21.043Z,7.00
2022-09-16T02:36:05.595Z,5.90
2022-09-16T02:42:49.204Z,5.25
2022-09-16T02:49:59.292Z,5.57
2022-09-16T02:56:42.262Z,7.05
2022-09-16T03:03:25.238Z,8.20
2022-09-16T03:10:11.756Z,5.80
2022-09-16T03:16:57.947Z,5.13
2022-09-16T03:23:52.381Z,6.22
2022-09-16T03:30:52.495Z,5.97
2022-09-16T03:37:38.290Z,4.38
2022-09-16T03:44:20.619Z,4.95
2022-09-16T03:51:03.042Z,7.70
2022-09-16T03:57:45.347Z,7.90
2022-09-16T04:04:27.849Z,6.57
2022-09-16T04:11:10.170Z,5.05
2022-09-16T04:17:52.756Z,5.97
2022-09-16T04:24:35.639Z,5.90
2022-09-16T04:31:18.029Z,6.57
2022-09-16T04:38:00.419Z,7.00
2022-09-16T04:44:42.767Z,5.70
2022-09-16T04:51:27.342Z,6.18
2022-09-16T04:58:09.926Z,5.75
2022-09-16T05:04:52.246Z,5.97
2022-09-16T05:11:37.163Z,7.57
2022-09-16T05:18:19.455Z,5.45
2022-09-16T05:25:01.807Z,10.82
2022-09-16T05:31:48.977Z,7.55
2022-09-16T05:38:31.341Z,5.88
2022-09-16T05:45:13.767Z,10.27
2022-09-16T05:51:56.100Z,6.47
2022-09-16T05:58:39.595Z,9.15
2022-09-16T06:05:21.978Z,6.28
2022-09-16T06:12:04.500Z,6.38
2022-09-16T06:18:46.892Z,6.38
2022-09-16T06:25:29.263Z,7.38
2022-09-16T06:32:11.973Z,8.95
2022-09-16T06:38:54.638Z,6.90
2022-09-16T06:45:36.934Z,8.05
2022-09-16T06:52:19.633Z,6.50
2022-09-16T06:59:01.962Z,7.60
2022-09-16T07:05:44.333Z,7.88
2022-09-16T07:12:28.542Z,5.72
2022-09-16T07:19:10.845Z,6.28
2022-09-16T07:26:10.244Z,5.40
2022-09-16T07:32:52.604Z,8.35
2022-09-16T07:39:34.885Z,4.53
2022-09-16T07:46:18.592Z,8.32
2022-09-16T07:53:01.062Z,7.40
2022-09-16T07:59:43.339Z,5.63
2022-09-16T08:06:28.020Z,4.70
2022-09-16T08:13:10.354Z,8.38
2022-09-16T08:19:52.715Z,7.95
2022-09-16T08:26:35.056Z,9.52
2022-09-16T08:33:21.033Z,9.38
2022-09-16T08:40:05.833Z,6.15
2022-09-16T08:47:06.151Z,5.82
2022-09-16T08:54:01.414Z,8.75
2022-09-16T09:00:47.315Z,10.05
2022-09-16T09:07:29.673Z,9.90
2022-09-16T09:14:33.521Z,7.78
2022-09-16T09:21:27.531Z,6.93
2022-09-16T09:28:31.135Z,7.72
2022-09-16T09:35:34.308Z,5.65
2022-09-16T09:42:21.656Z,4.72
2022-09-16T09:49:12.102Z,5.28
2022-09-16T09:56:00.916Z,7.63
2022-09-16T10:02:49.619Z,5.93
2022-09-16T10:09:34.134Z,5.10
2022-09-16T10:16:20.725Z,5.57
2022-09-16T10:23:09.365Z,6.35
2022-09-16T10:30:15.504Z,4.43
2022-09-16T10:37:12.939Z,4.10
2022-09-16T10:43:58.975Z,4.63
2022-09-16T10:50:59.080Z,7.53
2022-09-16T10:57:42.496Z,7.35
2022-09-16T11:04:48.591Z,6.85
2022-09-16T11:11:37.740Z,4.10
2022-09-16T11:18:50.668Z,9.23
2022-09-16T11:25:46.807Z,6.82
2022-09-16T11:32:49.347Z,4.20
2022-09-16T11:39:42.826Z,5.20
2022-09-16T11:46:39.962Z,5.68
2022-09-16T11:53:55.598Z,3.53
2022-09-16T12:00:39.643Z,3.55
2022-09-16T12:07:29.425Z,3.78
2022-09-16T12:14:25.684Z,7.47
2022-09-16T12:21:14.329Z,4.65
2022-09-16T12:28:06.014Z,4.95
2022-09-16T12:34:58.858Z,4.38
2022-09-16T12:42:11.431Z,4.65
2022-09-16T12:49:31.509Z,4.05
2022-09-16T12:56:45.546Z,6.82
2022-09-16T13:03:31.426Z,2.47
2022-09-16T13:17:40.232Z,2.22
2022-09-16T13:24:41.254Z,2.83
2022-09-16T13:31:33.990Z,4.35
2022-09-16T13:38:21.637Z,4.72
2022-09-16T13:45:04.301Z,5.45
2022-09-16T13:51:48.670Z,4.80
2022-09-16T13:58:45.924Z,4.82
2022-09-16T14:05:55.827Z,2.83
2022-09-16T14:12:53.943Z,6.60
2022-09-16T14:19:38.720Z,6.43
2022-09-16T14:26:23.607Z,4.00
2022-09-16T14:33:06.925Z,3.35
2022-09-16T14:39:54.508Z,4.85
2022-09-16T14:46:56.841Z,4.70
2022-09-16T14:54:11.662Z,3.40
2022-09-16T15:00:58.923Z,5.40
2022-09-16T15:07:56.450Z,3.97
2022-09-16T15:14:45.368Z,7.65
2022-09-16T15:21:33.831Z,4.22
2022-09-16T15:28:18.956Z,8.50
2022-09-16T15:35:19.507Z,3.95
2022-09-16T15:42:20.740Z,2.72
2022-09-16T15:49:03.423Z,3.63
2022-09-16T15:56:05.691Z,5.15
2022-09-16T16:02:57.367Z,3.45
2022-09-16T16:09:42.698Z,3.83
2022-09-16T16:16:25.623Z,6.00
2022-09-16T16:23:07.989Z,5.07
2022-09-16T16:29:50.623Z,3.65
2022-09-16T16:36:32.938Z,4.47
2022-09-16T16:43:15.599Z,3.25
2022-09-16T16:49:58.509Z,4.93
2022-09-16T16:56:41.076Z,5.50
2022-09-16T17:03:23.489Z,4.22
2022-09-16T17:10:06.190Z,2.53
2022-09-16T17:16:49.245Z,3.60
2022-09-16T17:23:31.630Z,3.75
2022-09-16T17:30:14.116Z,3.45
2022-09-16T17:36:57.472Z,5.05
2022-09-16T17:43:41.066Z,2.00
2022-09-16T17:50:23.379Z,2.17
2022-09-16T17:57:05.726Z,2.92
2022-09-16T18:03:50.295Z,2.85
2022-09-16T18:10:32.731Z,3.78
2022-09-16T18:17:15.463Z,3.03
2022-09-16T18:24:00.957Z,2.53
2022-09-16T18:30:44.236Z,1.70
2022-09-16T18:37:28.498Z,2.63
2022-09-16T18:44:16.630Z,2.67
2022-09-16T18:50:58.955Z,2.25
2022-09-16T18:57:41.288Z,4.78
2022-09-16T19:04:26.750Z,3.50
2022-09-16T19:11:09.282Z,1.50
2022-09-16T19:17:51.849Z,5.05
2022-09-16T19:24:34.492Z,3.65
2022-09-16T19:31:17.217Z,4.05
2022-09-16T19:38:00.743Z,3.63
2022-09-16T19:44:43.078Z,2.88
2022-09-16T19:51:25.825Z,2.20
2022-09-16T19:58:09.118Z,3.03
2022-09-16T20:04:51.531Z,1.58
2022-09-16T20:11:36.474Z,2.00
2022-09-16T20:18:19.590Z,2.35
2022-09-16T20:25:22.039Z,1.77
2022-09-16T20:32:04.301Z,2.88
2022-09-16T20:38:48.341Z,3.50
2022-09-16T20:45:30.961Z,2.08
2022-09-16T20:52:13.328Z,1.42
2022-09-16T20:58:55.845Z,1.30
2022-09-16T21:05:38.228Z,3.17
2022-09-16T21:12:20.863Z,2.42
2022-09-16T21:19:06.759Z,2.00
2022-09-16T21:25:49.098Z,4.60
2022-09-16T21:32:32.368Z,2.83
2022-09-16T21:39:15.641Z,2.13
2022-09-16T21:45:58.525Z,1.52
2022-09-16T21:52:40.969Z,1.45
2022-09-16T21:59:23.737Z,1.30
2022-09-16T22:06:08.426Z,1.65
2022-09-16T22:12:50.762Z,2.78
2022-09-16T22:19:33.066Z,1.73
2022-09-16T22:26:17.275Z,1.48
2022-09-16T22:33:00.335Z,2.33
2022-09-16T22:39:42.639Z,1.10
2022-09-16T22:46:28.451Z,1.45
2022-09-16T22:53:11.025Z,1.27
2022-09-16T22:59:53.346Z,1.70
2022-09-16T23:06:37.094Z,1.65
2022-09-16T23:13:21.602Z,2.33
2022-09-16T23:20:04.139Z,1.23
2022-09-16T23:26:47.628Z,1.98
2022-09-16T23:33:29.962Z,2.58
2022-09-16T23:40:12.326Z,1.38
2022-09-16T23:46:54.736Z,3.65
2022-09-16T23:53:38.535Z,1.92
